Time;durP1;ratioP1;P1;durP2;ratioP2;P2;SDS_P1;SDS_P2;PMS_P1;PMS_P2;Temp;Humidity;BMP_temperature;BMP_pressure;BME280_temperature;BME280_humidity;BME280_pressure;Samples;Min_cycle;Max_cycle;Signal;HPM_P1;HPM_P2
2024/01/10 00:02:22;;;;;;;7.85;3.95;;;7.10;96.70;;;;;;5034620;28;20057;-75
2024/01/10 00:04:56;;;;;;;7.28;4.60;;;7.10;96.70;;;;;;5035573;28;20057;-75
2024/01/10 00:07:27;;;;;;;7.30;4.07;;;7.20;96.70;;;;;;5044834;28;20053;-76
2024/01/10 00:09:57;;;;;;;6.10;4.57;;;7.20;96.70;;;;;;5042980;28;20052;-75
2024/01/10 00:12:26;;;;;;;6.80;4.28;;;7.10;96.70;;;;;;5039664;28;20060;-75
2024/01/10 00:14:55;;;;;;;8.70;5.65;;;7.10;96.70;;;;;;5037134;28;20076;-75
2024/01/10 00:17:24;;;;;;;5.40;3.92;;;7.10;96.70;;;;;;5036623;28;20415;-75
2024/01/10 00:19:52;;;;;;;8.60;4.70;;;7.10;96.70;;;;;;5039061;28;20568;-76
2024/01/10 00:22:21;;;;;;;7.00;4.03;;;7.10;96.70;;;;;;5040632;28;20103;-76
2024/01/10 00:24:52;;;;;;;7.72;4.32;;;7.10;96.70;;;;;;5039537;28;20053;-76
2024/01/10 00:27:21;;;;;;;7.80;4.15;;;7.10;96.70;;;;;;5026953;28;20053;-76
2024/01/10 00:29:51;;;;;;;7.65;3.83;;;7.20;96.70;;;;;;5036564;28;20053;-76
2024/01/10 00:32:20;;;;;;;7.82;4.50;;;7.20;96.70;;;;;;5044287;28;20140;-76
2024/01/10 00:34:49;;;;;;;6.28;3.90;;;7.20;96.70;;;;;;5047947;28;20054;-76
2024/01/10 00:37:18;;;;;;;5.57;3.67;;;7.20;96.70;;;;;;5034826;28;20052;-75
2024/01/10 00:39:48;;;;;;;5.75;3.75;;;7.20;96.70;;;;;;5041301;28;20053;-76
2024/01/10 00:42:19;;;;;;;4.75;3.30;;;7.30;96.70;;;;;;5042287;28;20135;-75
2024/01/10 00:44:48;;;;;;;4.88;3.53;;;7.30;96.70;;;;;;5036865;28;20088;-76
2024/01/10 00:47:16;;;;;;;6.45;4.03;;;7.20;96.70;;;;;;5039308;28;20548;-76
2024/01/10 00:49:45;;;;;;;5.38;3.35;;;7.30;96.70;;;;;;5040774;28;20521;-75
2024/01/10 00:52:14;;;;;;;6.93;3.60;;;7.30;96.70;;;;;;5027800;28;20053;-76
2024/01/10 00:54:44;;;;;;;5.97;3.65;;;7.30;96.70;;;;;;5026295;28;20921;-76
2024/01/10 00:57:12;;;;;;;5.97;3.45;;;7.30;96.70;;;;;;5052536;28;20053;-75
2024/01/10 00:59:42;;;;;;;6.50;3.47;;;7.20;96.70;;;;;;5059644;28;20045;-76
2024/01/10 01:02:10;;;;;;;6.60;3.63;;;7.10;96.70;;;;;;5036379;28;20048;-75
2024/01/10 01:04:39;;;;;;;5.13;3.63;;;7.10;96.70;;;;;;5031773;28;20057;-75
2024/01/10 01:07:08;;;;;;;5.05;3.28;;;7.10;96.70;;;;;;5057127;28;20049;-76
2024/01/10 01:09:36;;;;;;;4.50;3.20;;;7.10;96.70;;;;;;5031890;28;20077;-76
2024/01/10 01:12:05;;;;;;;5.05;3.42;;;7.00;96.70;;;;;;5057485;28;20601;-75
2024/01/10 01:14:33;;;;;;;5.43;3.50;;;7.10;96.70;;;;;;5028981;28;20140;-75
2024/01/10 01:17:03;;;;;;;6.82;4.10;;;7.10;96.70;;;;;;5018867;28;20103;-75
2024/01/10 01:19:32;;;;;;;5.40;3.78;;;7.10;96.70;;;;;;5025134;28;20063;-76
2024/01/10 01:22:01;;;;;;;5.53;3.10;;;7.10;96.70;;;;;;5017366;28;20450;-76
2024/01/10 01:24:30;;;;;;;8.70;3.78;;;7.10;96.70;;;;;;5041157;28;20053;-75
2024/01/10 01:26:58;;;;;;;5.43;3.00;;;7.00;96.70;;;;;;5044842;28;20094;-76
2024/01/10 01:29:27;;;;;;;6.13;3.75;;;7.10;96.70;;;;;;5048397;28;20063;-75
2024/01/10 01:31:55;;;;;;;5.20;3.20;;;7.10;96.70;;;;;;5051155;28;20045;-76
2024/01/10 01:34:26;;;;;;;6.30;3.47;;;7.10;96.70;;;;;;5016892;28;20061;-76
2024/01/10 01:36:54;;;;;;;5.70;3.17;;;7.10;96.70;;;;;;5054694;28;20143;-75
2024/01/10 01:39:22;;;;;;;8.07;3.83;;;7.00;96.70;;;;;;5043333;28;20052;-76
2024/01/10 01:41:52;;;;;;;5.68;3.85;;;7.00;96.70;;;;;;5036445;28;20053;-76
2024/01/10 01:44:21;;;;;;;6.35;4.43;;;6.90;96.70;;;;;;5049268;28;20130;-76
2024/01/10 01:46:50;;;;;;;7.53;4.90;;;6.80;96.70;;;;;;5059889;28;20053;-76
2024/01/10 01:49:21;;;;;;;8.30;5.55;;;6.80;96.70;;;;;;5041547;28;20060;-76
2024/01/10 01:51:53;;;;;;;7.95;5.35;;;6.80;96.70;;;;;;5050664;28;20079;-76
2024/01/10 01:54:22;;;;;;;10.02;5.65;;;6.80;96.70;;;;;;5039042;28;20559;-75
2024/01/10 01:56:51;;;;;;;6.68;5.03;;;6.90;96.70;;;;;;5038314;28;20053;-76
2024/01/10 01:59:20;;;;;;;7.68;5.03;;;6.80;96.70;;;;;;5041198;28;20735;-76
2024/01/10 02:01:52;;;;;;;7.30;4.45;;;6.70;96.70;;;;;;5039549;28;20049;-76
2024/01/10 02:04:22;;;;;;;5.93;4.25;;;6.70;96.70;;;;;;5033879;28;20049;-75
2024/01/10 02:06:51;;;;;;;5.57;3.90;;;6.70;96.70;;;;;;5041266;28;20054;-76
2024/01/10 02:09:25;;;;;;;6.82;4.10;;;6.70;96.70;;;;;;5003460;28;20057;-73
2024/01/10 02:11:55;;;;;;;6.32;3.53;;;6.70;96.70;;;;;;5038461;28;20549;-74
2024/01/10 02:14:24;;;;;;;5.00;3.72;;;6.60;96.70;;;;;;5027691;28;20540;-74
2024/01/10 02:16:56;;;;;;;7.45;3.47;;;6.60;96.70;;;;;;5029385;28;20563;-74
2024/01/10 02:19:26;;;;;;;6.07;3.65;;;6.70;96.70;;;;;;5049184;28;20056;-74
2024/01/10 02:25:10;;;;;;;5.47;3.45;;;6.60;96.70;;;;;;5046644;28;20106;-74
2024/01/10 02:28:02;;;;;;;5.97;3.40;;;6.60;96.70;;;;;;5046922;28;20065;-74
2024/01/10 02:34:22;;;;;;;7.80;4.10;;;6.60;96.70;;;;;;5027504;28;20551;-73
2024/01/10 02:36:51;;;;;;;5.10;3.33;;;6.60;96.70;;;;;;5044009;28;20433;-74
2024/01/10 02:39:25;;;;;;;5.03;3.30;;;6.70;96.70;;;;;;5039921;28;20119;-74
2024/01/10 02:41:56;;;;;;;4.72;3.47;;;6.70;96.70;;;;;;5014679;28;20526;-74
2024/01/10 02:48:44;;;;;;;5.32;3.38;;;6.60;96.70;;;;;;5033234;28;20151;-74
2024/01/10 02:51:13;;;;;;;4.93;2.95;;;6.70;96.70;;;;;;5023527;28;20575;-74
2024/01/10 02:54:30;;;;;;;6.97;3.78;;;6.70;96.70;;;;;;5045176;28;20091;-73
2024/01/10 02:57:00;;;;;;;5.25;3.13;;;6.80;96.70;;;;;;5062763;28;20076;-74
2024/01/10 02:59:34;;;;;;;7.30;3.67;;;6.80;96.70;;;;;;5046363;28;20095;-75
2024/01/10 03:02:26;;;;;;;;;;;;;;;;;;;;;
2024/01/10 03:04:55;;;;;;;4.57;2.97;;;6.80;96.70;;;;;;5036663;28;20056;-74
2024/01/10 03:07:24;;;;;;;6.72;3.10;;;6.90;96.70;;;;;;5048059;28;20786;-74
2024/01/10 03:09:54;;;;;;;4.70;3.10;;;6.90;96.70;;;;;;5065944;28;20048;-74
2024/01/10 03:12:24;;;;;;;6.72;3.45;;;6.80;96.70;;;;;;5066012;28;20040;-74
2024/01/10 03:16:14;;;;;;;5.95;3.60;;;6.80;96.70;;;;;;5053597;28;20121;-73
2024/01/10 03:18:32;;;;;;;5.82;2.95;;;6.70;96.70;;;;;;5058092;28;20076;-73
2024/01/10 03:21:04;;;;;;;4.65;2.97;;;6.80;96.70;;;;;;5046462;28;20060;-74
2024/01/10 03:23:33;;;;;;;4.90;2.63;;;6.90;96.70;;;;;;5046760;28;20084;-74
2024/01/10 03:26:57;;;;;;;5.40;3.22;;;6.80;96.70;;;;;;5062079;28;20500;-74
2024/01/10 03:30:14;;;;;;;4.75;2.92;;;6.80;96.70;;;;;;5062683;28;20574;-74
2024/01/10 03:35:56;;;;;;;5.72;3.00;;;6.70;96.70;;;;;;5047396;28;20780;-74
2024/01/10 03:38:25;;;;;;;6.72;3.45;;;6.70;96.70;;;;;;5065571;28;20060;-74
2024/01/10 03:40:57;;;;;;;4.82;2.95;;;6.70;96.70;;;;;;5063359;28;20591;-74
2024/01/10 03:47:40;;;;;;;5.53;3.08;;;6.70;96.70;;;;;;5060605;28;20392;-74
2024/01/10 03:50:09;;;;;;;5.65;3.20;;;6.70;96.70;;;;;;5064875;28;20087;-74
2024/01/10 03:52:44;;;;;;;4.18;3.00;;;6.60;96.70;;;;;;5064385;28;20669;-74
2024/01/10 03:55:27;;;;;;;5.00;3.10;;;6.60;96.70;;;;;;5046679;28;20484;-74
2024/01/10 03:57:56;;;;;;;7.15;2.97;;;6.60;96.70;;;;;;5064889;28;20048;-74
2024/01/10 04:00:25;;;;;;;5.00;2.70;;;6.60;96.70;;;;;;5062132;28;20147;-74
2024/01/10 04:02:56;;;;;;;6.72;2.97;;;6.60;96.70;;;;;;5064477;28;20123;-74
2024/01/10 04:06:27;;;;;;;4.65;2.80;;;6.70;96.70;;;;;;5050729;28;20059;-74
2024/01/10 04:08:57;;;;;;;5.60;2.97;;;6.60;96.70;;;;;;5064643;28;20453;-74
2024/01/10 04:11:29;;;;;;;4.03;2.60;;;6.60;96.70;;;;;;5064539;28;20151;-74
2024/01/10 04:14:22;;;;;;;5.20;3.13;;;6.60;96.70;;;;;;5063865;28;20139;-74
2024/01/10 04:16:52;;;;;;;4.95;2.47;;;6.60;96.70;;;;;;5046241;28;20655;-74
2024/01/10 04:19:23;;;;;;;6.68;3.05;;;6.70;96.70;;;;;;5064468;28;20052;-74
2024/01/10 04:22:13;;;;;;;4.05;2.70;;;6.70;96.70;;;;;;5046415;28;20060;-74
2024/01/10 04:25:59;;;;;;;4.93;3.10;;;6.60;96.70;;;;;;5054166;28;20079;-74
2024/01/10 04:29:03;;;;;;;6.68;3.25;;;6.60;96.70;;;;;;5059291;28;20056;-74
2024/01/10 04:31:38;;;;;;;4.45;2.85;;;6.50;96.70;;;;;;5063023;28;20055;-74
2024/01/10 04:35:24;;;;;;;5.25;2.92;;;6.50;96.70;;;;;;5063194;28;20066;-74
2024/01/10 04:38:06;;;;;;;7.32;3.92;;;6.40;96.70;;;;;;5063518;28;20488;-74
2024/01/10 04:40:38;;;;;;;5.90;3.53;;;6.50;96.70;;;;;;5056289;28;20064;-74
2024/01/10 04:43:07;;;;;;;5.72;3.40;;;6.50;96.70;;;;;;5045690;28;20561;-72
2024/01/10 04:45:36;;;;;;;7.38;3.60;;;6.40;96.70;;;;;;5063228;28;20775;-74
2024/01/10 04:48:08;;;;;;;7.07;4.28;;;6.40;96.70;;;;;;5047276;28;20075;-74
2024/01/10 04:51:18;;;;;;;5.55;3.45;;;6.30;96.70;;;;;;5048031;28;20067;-73
2024/01/10 04:53:46;;;;;;;10.80;5.82;;;6.40;96.70;;;;;;5063911;28;20449;-74
2024/01/10 04:56:30;;;;;;;;;;;;;;;;;;;;;
2024/01/10 05:03:24;;;;;;;9.88;4.82;;;6.30;96.70;;;;;;5047198;28;20053;-74
2024/01/10 05:05:57;;;;;;;7.57;5.00;;;6.30;96.70;;;;;;5042885;28;20052;-74
2024/01/10 05:08:37;;;;;;;7.63;4.57;;;6.30;96.70;;;;;;5047229;28;20135;-73
2024/01/10 05:11:26;;;;;;;7.10;4.68;;;6.20;96.70;;;;;;5058461;28;20719;-74
2024/01/10 05:13:55;;;;;;;6.85;4.30;;;6.10;96.70;;;;;;5061934;28;20789;-74
2024/01/10 05:16:24;;;;;;;6.03;4.00;;;6.20;96.70;;;;;;5067977;28;20153;-74
2024/01/10 05:23:20;;;;;;;5.95;4.05;;;6.30;96.70;;;;;;5065857;28;20423;-74
2024/01/10 05:26:04;;;;;;;7.50;4.15;;;6.20;96.70;;;;;;5034675;28;20556;-73
2024/01/10 05:28:32;;;;;;;7.85;4.00;;;6.10;96.70;;;;;;5045118;28;20863;-73
2024/01/10 05:39:30;;;;;;;6.90;3.38;;;6.10;96.70;;;;;;5006353;28;20052;-73
2024/01/10 05:42:09;;;;;;;6.60;3.60;;;6.10;96.70;;;;;;5023693;28;20056;-74
2024/01/10 05:44:40;;;;;;;5.82;3.42;;;6.20;96.70;;;;;;5008299;28;20833;-74
2024/01/10 05:47:13;;;;;;;4.85;3.20;;;6.30;96.70;;;;;;5025011;28;20593;-74
2024/01/10 05:50:02;;;;;;;9.13;3.38;;;6.30;96.70;;;;;;5019560;28;20518;-74
2024/01/10 05:52:33;;;;;;;5.68;3.45;;;6.40;96.70;;;;;;5008252;28;20645;-74
2024/01/10 05:55:08;;;;;;;4.97;3.20;;;6.50;96.70;;;;;;5021249;28;20061;-74
2024/01/10 05:57:38;;;;;;;6.05;3.55;;;6.60;96.70;;;;;;5023099;28;20072;-73
2024/01/10 06:00:09;;;;;;;4.90;3.17;;;6.60;96.70;;;;;;5018571;28;20068;-73
2024/01/10 06:03:03;;;;;;;4.43;3.17;;;6.70;96.70;;;;;;5009319;28;20132;-73
2024/01/10 06:05:42;;;;;;;5.68;3.55;;;6.70;96.70;;;;;;5025287;28;20792;-74
2024/01/10 06:08:11;;;;;;;7.97;3.88;;;6.80;96.70;;;;;;5028585;28;20064;-73
2024/01/10 06:10:40;;;;;;;7.40;3.78;;;6.90;96.70;;;;;;5012475;28;20061;-74
2024/01/10 06:13:10;;;;;;;7.28;3.95;;;6.90;96.70;;;;;;4992033;28;20634;-74
2024/01/10 06:15:39;;;;;;;5.50;3.60;;;6.90;96.70;;;;;;5034778;28;20131;-74
2024/01/10 06:18:07;;;;;;;9.07;3.85;;;6.90;96.70;;;;;;5037644;28;20069;-74
2024/01/10 06:20:39;;;;;;;5.07;3.30;;;6.80;96.70;;;;;;5038908;28;20140;-73
2024/01/10 06:23:07;;;;;;;6.65;3.83;;;6.90;96.70;;;;;;5052284;28;20601;-73
2024/01/10 06:25:39;;;;;;;5.75;3.47;;;6.90;96.70;;;;;;5040594;28;20058;-73
2024/01/10 06:28:10;;;;;;;6.40;3.65;;;7.00;96.70;;;;;;5045063;28;20510;-73
2024/01/10 06:30:39;;;;;;;5.43;3.45;;;7.00;96.70;;;;;;5038404;28;21024;-74
2024/01/10 06:33:08;;;;;;;6.25;3.75;;;6.90;96.70;;;;;;5029124;28;20574;-76
2024/01/10 06:35:39;;;;;;;7.45;3.75;;;6.90;96.70;;;;;;5031567;28;20053;-76
2024/01/10 06:41:11;;;;;;;6.22;4.00;;;6.90;96.70;;;;;;5044047;28;20053;-74
2024/01/10 06:43:41;;;;;;;6.07;3.90;;;7.00;96.70;;;;;;5048928;28;20470;-74
2024/01/10 06:49:22;;;;;;;5.85;3.92;;;7.00;96.70;;;;;;5034707;28;20057;-74
2024/01/10 06:52:00;;;;;;;10.45;4.97;;;7.00;96.70;;;;;;5029812;28;20049;-74
2024/01/10 06:54:29;;;;;;;12.80;7.38;;;7.00;96.70;;;;;;5038930;28;20163;-73
2024/01/10 06:56:58;;;;;;;16.55;9.70;;;7.00;96.70;;;;;;5047745;28;20049;-74
2024/01/10 07:00:11;;;;;;;16.05;7.25;;;7.00;96.70;;;;;;5066600;28;20139;-75
2024/01/10 07:02:41;;;;;;;11.90;7.47;;;7.10;96.70;;;;;;5067118;28;20068;-75
2024/01/10 07:05:12;;;;;;;11.27;6.53;;;7.10;96.70;;;;;;5072043;28;20131;-75
2024/01/10 07:08:06;;;;;;;8.13;4.50;;;7.00;96.70;;;;;;5066012;28;20044;-75
2024/01/10 07:11:26;;;;;;;;;;;;;;;;;;;;;
2024/01/10 07:14:46;;;;;;;9.20;5.28;;;7.10;96.70;;;;;;5047467;28;20093;-74
2024/01/10 07:24:59;;;;;;;9.35;5.15;;;7.20;96.70;;;;;;5035154;28;20533;-75
2024/01/10 07:27:28;;;;;;;7.95;4.38;;;7.20;96.70;;;;;;5048177;28;20064;-75
2024/01/10 07:29:57;;;;;;;8.02;4.30;;;7.20;96.70;;;;;;5065415;28;20057;-75
2024/01/10 07:37:23;;;;;;;;;;;;;;;;;;;;;
2024/01/10 07:40:31;;;;;;;7.20;4.00;;;7.40;96.70;;;;;;5003607;28;20069;-74
2024/01/10 07:43:17;;;;;;;6.22;3.95;;;7.40;96.70;;;;;;4996905;28;20054;-75
2024/01/10 07:49:34;;;;;;;6.95;3.60;;;7.50;96.70;;;;;;4992691;28;20062;-74
2024/01/10 07:52:22;;;;;;;7.03;3.97;;;7.50;96.70;;;;;;5002832;28;20084;-75
2024/01/10 07:54:53;;;;;;;5.50;3.55;;;7.60;96.70;;;;;;5003457;28;20069;-75
2024/01/10 07:57:39;;;;;;;6.40;3.17;;;7.60;96.70;;;;;;4983671;28;20054;-74
2024/01/10 08:00:54;;;;;;;6.18;3.75;;;7.70;96.70;;;;;;4961378;28;20627;-75
2024/01/10 08:03:23;;;;;;;6.93;3.38;;;7.70;96.70;;;;;;4983604;28;20057;-75
2024/01/10 08:05:52;;;;;;;7.72;3.72;;;7.70;96.70;;;;;;4983367;28;20061;-74
2024/01/10 08:08:48;;;;;;;6.72;4.13;;;7.70;96.70;;;;;;4967640;28;20404;-76
2024/01/10 08:11:53;;;;;;;5.97;4.00;;;7.80;96.70;;;;;;4998564;28;20058;-75
2024/01/10 08:14:40;;;;;;;6.45;4.43;;;7.90;96.70;;;;;;5005998;28;20081;-75
2024/01/10 08:17:12;;;;;;;6.57;4.10;;;7.90;96.70;;;;;;5029725;28;20078;-75
2024/01/10 08:19:43;;;;;;;8.73;4.45;;;8.00;96.70;;;;;;5038373;28;20064;-75
2024/01/10 08:22:19;;;;;;;6.95;4.68;;;7.90;96.70;;;;;;5042806;28;20083;-75
2024/01/10 08:24:59;;;;;;;8.70;4.47;;;8.00;96.70;;;;;;5040833;28;20057;-75
2024/01/10 08:27:31;;;;;;;7.07;3.85;;;8.10;96.70;;;;;;5020224;28;20521;-75
2024/01/10 08:30:27;;;;;;;5.85;3.63;;;8.10;96.70;;;;;;4997389;28;20106;-75
2024/01/10 08:33:07;;;;;;;;;;;;;;;;;;;;;
2024/01/10 08:35:43;;;;;;;7.47;3.88;;;8.20;96.70;;;;;;4997269;28;20209;-75
2024/01/10 08:38:20;;;;;;;7.10;4.10;;;8.20;96.70;;;;;;4995314;28;20058;-75
2024/01/10 08:41:11;;;;;;;;;;;;;;;;;;;;;
2024/01/10 08:44:03;;;;;;;6.10;3.53;;;8.30;96.70;;;;;;5007320;28;20057;-75
2024/01/10 08:46:53;;;;;;;5.72;3.80;;;8.30;96.70;;;;;;4994215;28;20070;-74
2024/01/10 08:49:22;;;;;;;4.75;3.13;;;8.40;96.70;;;;;;4983148;28;20898;-74
2024/01/10 08:51:53;;;;;;;5.85;3.80;;;8.40;96.70;;;;;;4998832;28;20551;-74
2024/01/10 08:54:32;;;;;;;7.95;3.53;;;8.50;96.70;;;;;;5002106;28;20065;-74
2024/01/10 08:57:13;;;;;;;7.50;3.88;;;8.50;96.70;;;;;;5020355;28;20089;-74
2024/01/10 08:59:42;;;;;;;4.40;3.28;;;8.60;96.70;;;;;;5021942;28;20053;-74
2024/01/10 09:02:11;;;;;;;8.90;4.00;;;8.60;96.70;;;;;;5060826;28;20061;-74
2024/01/10 09:05:00;;;;;;;6.68;4.07;;;8.70;96.70;;;;;;5058071;28;20065;-74
2024/01/10 09:07:30;;;;;;;9.15;4.38;;;8.70;96.70;;;;;;5046222;28;20053;-74
2024/01/10 09:10:05;;;;;;;6.72;3.67;;;8.80;96.70;;;;;;5064868;28;20057;-74
2024/01/10 09:12:39;;;;;;;7.20;4.03;;;8.80;96.70;;;;;;5064610;28;20401;-74
2024/01/10 09:15:30;;;;;;;8.52;4.50;;;8.90;96.70;;;;;;5064714;28;20552;-74
2024/01/10 09:18:09;;;;;;;7.82;4.38;;;9.00;96.70;;;;;;5064434;28;20060;-74
2024/01/10 09:20:39;;;;;;;8.43;3.97;;;9.00;96.70;;;;;;5064124;28;20070;-74
2024/01/10 09:23:47;;;;;;;5.65;3.92;;;9.10;96.70;;;;;;5029965;28;20295;-74
2024/01/10 09:26:16;;;;;;;8.07;4.25;;;9.20;96.70;;;;;;5064163;28;20586;-74
2024/01/10 09:28:47;;;;;;;8.00;4.63;;;9.20;96.70;;;;;;5046555;28;20052;-74
2024/01/10 09:31:15;;;;;;;10.30;5.38;;;9.30;96.70;;;;;;5064744;28;20059;-74
2024/01/10 09:33:44;;;;;;;10.25;5.95;;;9.30;96.70;;;;;;5045990;28;20052;-74
2024/01/10 09:36:14;;;;;;;8.90;6.15;;;9.40;96.70;;;;;;5064488;28;20072;-74
2024/01/10 09:38:46;;;;;;;10.38;6.40;;;9.50;96.70;;;;;;5042909;28;20084;-74
2024/01/10 09:41:15;;;;;;;10.23;5.70;;;9.50;96.70;;;;;;5064544;28;20060;-74
2024/01/10 09:43:48;;;;;;;7.78;5.65;;;9.50;96.70;;;;;;5064561;28;20509;-74
2024/01/10 09:46:20;;;;;;;9.07;6.15;;;9.60;96.70;;;;;;5065032;28;20074;-74
2024/01/10 09:48:50;;;;;;;8.27;5.93;;;9.60;96.70;;;;;;5064166;28;20098;-75
2024/01/10 09:51:24;;;;;;;8.02;5.38;;;9.70;96.70;;;;;;5039221;28;20084;-75
2024/01/10 09:53:55;;;;;;;7.03;4.70;;;9.70;96.70;;;;;;5046062;28;20720;-74
2024/01/10 09:56:24;;;;;;;6.22;4.40;;;9.70;96.70;;;;;;5064266;28;20095;-74
2024/01/10 09:58:58;;;;;;;6.00;4.20;;;9.70;96.70;;;;;;5065991;28;20044;-75
2024/01/10 10:02:24;;;;;;;4.78;3.20;;;9.70;96.70;;;;;;5032510;28;20067;-74
2024/01/10 10:04:54;;;;;;;4.38;2.95;;;9.70;96.70;;;;;;5065627;28;20065;-74
2024/01/10 10:07:25;;;;;;;7.93;3.72;;;9.70;96.70;;;;;;5068010;28;20594;-74
2024/01/10 10:09:56;;;;;;;4.28;3.08;;;9.80;96.70;;;;;;5067230;28;20069;-74
2024/01/10 10:12:42;;;;;;;4.45;2.63;;;9.80;96.70;;;;;;5049148;28;20543;-74
2024/01/10 10:15:16;;;;;;;4.90;3.17;;;9.80;96.70;;;;;;5059153;28;20541;-75
2024/01/10 10:17:47;;;;;;;3.83;2.97;;;9.80;96.70;;;;;;5049502;28;20628;-74
2024/01/10 10:20:22;;;;;;;5.40;3.30;;;9.80;96.70;;;;;;5068000;28;20060;-74
2024/01/10 10:23:01;;;;;;;4.78;2.90;;;9.90;96.70;;;;;;5067042;28;20147;-74
2024/01/10 10:25:32;;;;;;;4.72;2.97;;;9.90;96.70;;;;;;5067548;28;20056;-74
2024/01/10 10:28:06;;;;;;;4.13;3.13;;;9.90;96.70;;;;;;5067276;28;20505;-74
2024/01/10 10:30:47;;;;;;;8.63;3.15;;;10.00;96.70;;;;;;5067499;28;20111;-74
2024/01/10 10:33:22;;;;;;;4.18;2.50;;;10.20;96.70;;;;;;5066409;28;20568;-74
2024/01/10 10:35:55;;;;;;;5.40;3.33;;;10.30;96.70;;;;;;5067581;28;20528;-74
2024/01/10 10:38:24;;;;;;;4.35;2.70;;;10.40;96.70;;;;;;5067072;28;20628;-74
2024/01/10 10:40:53;;;;;;;6.13;3.08;;;10.50;96.70;;;;;;5066943;28;20082;-74
2024/01/10 10:43:22;;;;;;;4.40;2.85;;;10.60;96.70;;;;;;5066736;28;20106;-74
2024/01/10 10:45:54;;;;;;;4.93;3.05;;;10.70;96.70;;;;;;5067320;28;20048;-74
2024/01/10 10:48:23;;;;;;;3.90;2.60;;;10.80;96.70;;;;;;5067130;28;20153;-74
2024/01/10 10:50:59;;;;;;;5.63;3.15;;;10.90;96.70;;;;;;5066869;28;20101;-74
2024/01/10 10:53:30;;;;;;;6.47;3.75;;;10.90;96.70;;;;;;5066465;28;20075;-74
2024/01/10 10:56:00;;;;;;;4.75;2.92;;;10.90;96.70;;;;;;5049009;28;20110;-74
2024/01/10 10:58:31;;;;;;;4.05;2.58;;;10.90;96.70;;;;;;5048975;28;20059;-74
2024/01/10 11:01:05;;;;;;;3.80;2.60;;;11.00;96.70;;;;;;5044991;28;20106;-74
2024/01/10 11:03:36;;;;;;;5.25;2.97;;;11.10;96.70;;;;;;5055189;28;20497;-74
2024/01/10 11:06:05;;;;;;;5.82;3.20;;;11.20;96.70;;;;;;5066636;28;20052;-74
2024/01/10 11:08:38;;;;;;;7.20;3.95;;;11.10;96.70;;;;;;5048546;28;20052;-74
2024/01/10 11:11:23;;;;;;;6.30;3.13;;;11.20;96.70;;;;;;5052168;28;20147;-74
2024/01/10 11:14:15;;;;;;;5.07;3.38;;;11.30;96.70;;;;;;5066266;28;20129;-74
2024/01/10 11:17:11;;;;;;;5.53;3.45;;;11.30;96.70;;;;;;5064063;28;20455;-74
2024/01/10 11:20:37;;;;;;;;;;;;;;;;;;;;;
2024/01/10 11:27:07;;;;;;;5.20;2.88;;;11.80;96.70;;;;;;5041832;28;20143;-74
2024/01/10 11:29:48;;;;;;;4.10;2.85;;;11.80;96.70;;;;;;5065407;28;20123;-74
2024/01/10 11:32:23;;;;;;;5.03;2.67;;;12.00;96.70;;;;;;5003340;28;20525;-74
2024/01/10 11:34:58;;;;;;;5.05;2.90;;;12.10;96.70;;;;;;5065601;28;20044;-75
2024/01/10 11:37:40;;;;;;;5.05;2.75;;;12.00;96.70;;;;;;5066112;28;20524;-74
2024/01/10 11:44:46;;;;;;;4.78;3.05;;;12.00;96.70;;;;;;5065609;28;20052;-74
2024/01/10 11:47:57;;;;;;;5.68;3.13;;;11.90;96.70;;;;;;5065895;28;20063;-74
2024/01/10 11:51:08;;;;;;;6.05;3.20;;;12.00;96.70;;;;;;5062266;28;20075;-73
2024/01/10 11:54:00;;;;;;;5.95;3.25;;;12.00;96.70;;;;;;5052931;28;20057;-73
2024/01/10 11:56:48;;;;;;;4.00;3.00;;;12.00;96.70;;;;;;5059459;28;20548;-74
2024/01/10 12:07:09;;;;;;;5.78;3.35;;;11.90;96.70;;;;;;5033620;28;20083;-73
2024/01/10 12:10:04;;;;;;;6.03;3.53;;;11.80;96.70;;;;;;5016119;28;20118;-73
2024/01/10 12:12:33;;;;;;;5.97;4.28;;;11.90;96.70;;;;;;5042923;28;20088;-73
2024/01/10 12:15:12;;;;;;;;;;;;;;;;;;;;;
2024/01/10 12:17:52;;;;;;;6.63;4.35;;;12.00;96.70;;;;;;5050131;28;20072;-73
2024/01/10 12:20:25;;;;;;;4.53;3.13;;;11.90;96.70;;;;;;5064766;28;20062;-74
2024/01/10 12:23:11;;;;;;;;;;;;;;;;;;;;;
2024/01/10 12:25:46;;;;;;;5.20;3.30;;;11.80;96.70;;;;;;5046144;28;20084;-73
2024/01/10 12:28:16;;;;;;;5.75;3.88;;;11.80;96.70;;;;;;5062846;28;20137;-73
2024/01/10 12:30:45;;;;;;;6.55;3.97;;;11.90;96.70;;;;;;5058958;28;20107;-73
2024/01/10 12:33:14;;;;;;;6.15;3.90;;;11.90;96.70;;;;;;5032219;28;20438;-72
2024/01/10 12:36:17;;;;;;;;;;;;;;;;;;;;;
2024/01/10 12:39:04;;;;;;;5.90;3.55;;;12.00;96.70;;;;;;5050926;28;20627;-73
2024/01/10 12:41:36;;;;;;;6.53;4.30;;;11.90;96.70;;;;;;5045864;28;20057;-73
2024/01/10 12:44:20;;;;;;;6.72;3.92;;;12.00;96.70;;;;;;5048156;28;20045;-73
2024/01/10 12:46:54;;;;;;;9.32;4.35;;;12.00;96.70;;;;;;5035068;28;20060;-73
2024/01/10 12:49:23;;;;;;;5.25;3.45;;;11.90;96.70;;;;;;5054180;28;20721;-73
2024/01/10 12:52:27;;;;;;;;;;;;;;;;;;;;;
2024/01/10 12:55:40;;;;;;;5.25;3.40;;;11.90;96.70;;;;;;4971179;28;20143;-74
2024/01/10 12:58:10;;;;;;;5.20;3.25;;;11.70;96.70;;;;;;5062720;28;20107;-74
2024/01/10 13:00:40;;;;;;;5.90;3.47;;;11.80;96.70;;;;;;5063584;28;20059;-74
2024/01/10 13:03:09;;;;;;;5.63;3.30;;;11.80;96.70;;;;;;5064592;28;20056;-76
2024/01/10 13:05:38;;;;;;;4.57;3.35;;;11.80;96.70;;;;;;5029781;28;20420;-76
2024/01/10 13:08:07;;;;;;;6.90;3.33;;;11.80;96.70;;;;;;5064597;28;20052;-76
2024/01/10 13:10:37;;;;;;;5.35;3.20;;;11.80;96.70;;;;;;5064678;28;20049;-76
2024/01/10 13:13:07;;;;;;;4.47;3.05;;;11.80;96.70;;;;;;5063753;28;20076;-76
2024/01/10 13:15:37;;;;;;;4.40;3.28;;;11.80;96.70;;;;;;5063510;28;20053;-76
2024/01/10 13:18:07;;;;;;;5.32;3.92;;;11.70;96.70;;;;;;5046391;28;20044;-76
2024/01/10 13:20:37;;;;;;;9.48;3.90;;;11.80;96.70;;;;;;5064190;28;20056;-76
2024/01/10 13:23:08;;;;;;;9.30;5.30;;;11.80;96.70;;;;;;5043110;28;20057;-76
2024/01/10 13:25:41;;;;;;;7.65;4.35;;;11.90;96.70;;;;;;5046097;28;20114;-76
2024/01/10 13:28:13;;;;;;;7.22;4.20;;;12.00;96.70;;;;;;5064003;28;20052;-76
2024/01/10 13:30:42;;;;;;;6.70;3.78;;;12.00;96.70;;;;;;5063344;28;20080;-75
2024/01/10 13:33:11;;;;;;;6.78;4.45;;;11.90;96.70;;;;;;5064250;28;20049;-76
2024/01/10 13:35:42;;;;;;;6.55;4.20;;;11.80;96.70;;;;;;5068144;28;20497;-75
2024/01/10 13:38:12;;;;;;;5.88;4.00;;;11.90;96.70;;;;;;5042410;28;20112;-76
2024/01/10 13:40:42;;;;;;;9.10;4.80;;;11.80;96.70;;;;;;5067549;28;20532;-76
2024/01/10 13:43:13;;;;;;;7.45;4.20;;;11.90;96.70;;;;;;5067236;28;20060;-74
2024/01/10 13:45:42;;;;;;;5.53;4.10;;;11.70;96.70;;;;;;5049354;28;20117;-76
2024/01/10 13:48:12;;;;;;;6.63;3.10;;;11.70;96.70;;;;;;5067111;28;20052;-75
2024/01/10 13:50:41;;;;;;;5.05;3.92;;;11.60;96.70;;;;;;5042172;28;20394;-76
2024/01/10 13:53:10;;;;;;;5.28;4.13;;;11.60;96.70;;;;;;5049065;28;20522;-75
2024/01/10 13:59:38;;;;;;;6.00;3.67;;;11.40;96.70;;;;;;5056829;28;20532;-72
2024/01/10 14:06:38;;;;;;;7.05;3.63;;;11.20;96.70;;;;;;5063245;28;20557;-76
2024/01/10 14:09:12;;;;;;;5.15;3.67;;;11.00;96.70;;;;;;5067777;28;20060;-76
2024/01/10 14:11:44;;;;;;;4.97;3.58;;;11.00;96.70;;;;;;5067941;28;20136;-76
2024/01/10 14:14:13;;;;;;;3.95;3.25;;;10.90;96.70;;;;;;5066897;28;20049;-76
2024/01/10 14:16:43;;;;;;;4.88;3.28;;;10.90;96.70;;;;;;5066623;28;20052;-75
2024/01/10 14:19:12;;;;;;;5.35;3.30;;;10.90;96.70;;;;;;5061639;28;20075;-76
2024/01/10 14:21:41;;;;;;;5.45;3.35;;;10.80;96.70;;;;;;5067702;28;20197;-76
2024/01/10 14:24:14;;;;;;;7.22;3.15;;;10.80;96.70;;;;;;5067451;28;20106;-76
2024/01/10 14:26:43;;;;;;;5.88;3.30;;;10.80;96.70;;;;;;5067024;28;20398;-76
2024/01/10 14:29:12;;;;;;;6.00;3.05;;;10.70;96.70;;;;;;5067381;28;20437;-76
2024/01/10 14:31:42;;;;;;;5.03;3.38;;;10.70;96.70;;;;;;5067659;28;20181;-76
2024/01/10 14:34:17;;;;;;;;;;;10.60;96.70;;;;;;5067921;28;20136;-76
2024/01/10 14:36:48;;;;;;;4.22;3.13;;;10.60;96.70;;;;;;5067369;28;20029;-76
2024/01/10 14:39:18;;;;;;;7.47;4.05;;;10.60;96.70;;;;;;5048234;28;20147;-76
2024/01/10 14:41:47;;;;;;;9.82;6.90;;;10.60;96.70;;;;;;5049091;28;20095;-76
2024/01/10 14:44:15;;;;;;;5.43;3.55;;;10.60;96.70;;;;;;5067335;28;20067;-76
2024/01/10 14:46:48;;;;;;;3.92;3.03;;;10.60;96.70;;;;;;5067383;28;20060;-76
2024/01/10 14:49:31;;;;;;;5.03;3.35;;;10.70;96.70;;;;;;5066836;28;20059;-76
2024/01/10 14:52:01;;;;;;;5.63;3.42;;;10.70;96.70;;;;;;5057154;28;20056;-76
2024/01/10 14:54:30;;;;;;;4.80;3.42;;;10.70;96.70;;;;;;5066846;28;20057;-76
2024/01/10 14:57:04;;;;;;;5.32;3.33;;;10.70;96.70;;;;;;5067178;28;20056;-76
2024/01/10 14:59:33;;;;;;;5.00;3.47;;;10.60;96.70;;;;;;5067728;28;20687;-75
2024/01/10 15:02:15;;;;;;;7.30;4.63;;;10.40;96.70;;;;;;5060416;28;20056;-76
2024/01/10 15:04:44;;;;;;;6.80;4.30;;;10.30;96.70;;;;;;5049445;28;20109;-76
2024/01/10 15:07:13;;;;;;;9.43;5.75;;;10.30;96.70;;;;;;5049258;28;20052;-76
2024/01/10 15:09:43;;;;;;;5.35;4.20;;;10.20;96.70;;;;;;5066469;28;20091;-76
2024/01/10 15:12:12;;;;;;;7.20;4.88;;;10.20;96.70;;;;;;5066680;28;20118;-76
2024/01/10 15:14:41;;;;;;;5.82;4.00;;;10.10;96.70;;;;;;5063633;28;20994;-76
2024/01/10 15:17:10;;;;;;;7.65;4.93;;;10.10;96.70;;;;;;5067256;28;20066;-75